Menu Close Menu
Station Historical Data
Daily Summary for June 6, 2017 Units:  English    Metric   Both
« Previous Day
Next Day »
Daily Weekly Monthly Yearly Custom
  High: Low: Average:
Temperature: 78.4 °F 68.3 °F 72.7 °F
Dew Point: 70.6 °F 66.2 °F 68.4 °F
Humidity: 95% 71% 87%
Wind Speed: 0.0mph 0.0mph 0mph
Wind Gust: 3.0mph - -
Wind- -
Pressure: 29.83 in 29.73 in -
Precipitation: 0.00 in    
Historical Graphs
 
 
Tabular Data for June 6, 2017
Time Temperature Dew Point Pressure Wind Wind Speed Wind Gust Humidity Rainfall Rate (Hourly) solar Conditions
00:00 69.7 °F 67.6 °F 29.83 in Calm     93% 0.00 in WeatherDisplay:10.37 W/m2 RA
00:10 69.7 °F 67.6 °F 29.83 in Calm     93% 0.00 in WeatherDisplay:10.37 W/m2 SCT
00:20 69.6 °F 67.5 °F 29.83 in Calm     93% 0.00 in WeatherDisplay:10.37 W/m2 SCT
00:30 69.6 °F 67.5 °F 29.82 in Calm     93% 0.00 in WeatherDisplay:10.37 W/m2 SCT
00:40 69.5 °F 67.4 °F 29.82 in Calm     93% 0.00 in WeatherDisplay:10.37 W/m2 SCT
00:50 69.4 °F 67.3 °F 29.83 in Calm     93% 0.00 in WeatherDisplay:10.37 W/m2 SCT
01:00 69.4 °F 67.3 °F 29.82 in Calm     93% 0.00 in WeatherDisplay:10.37 W/m2 SCT
01:10 69.3 °F 67.2 °F 29.83 in Calm     93% 0.00 in WeatherDisplay:10.37 W/m2 SCT
01:20 69.3 °F 67.2 °F 29.83 in Calm     93% 0.00 in WeatherDisplay:10.37 W/m2 SCT
01:30 69.3 °F 67.2 °F 29.83 in Calm     93% 0.00 in WeatherDisplay:10.37 W/m2 SCT
01:40 69.3 °F 67.2 °F 29.83 in Calm     93% 0.00 in WeatherDisplay:10.37 W/m2 SCT
01:50 69.2 °F 67.1 °F 29.82 in Calm     93% 0.00 in WeatherDisplay:10.37 W/m2 SCT
02:00 69.2 °F 67.1 °F 29.82 in Calm     93% 0.00 in WeatherDisplay:10.37 W/m2 SCT
02:10 69.2 °F 67.1 °F 29.82 in Calm     93% 0.00 in WeatherDisplay:10.37 W/m2 SCT
02:20 69.2 °F 67.1 °F 29.82 in Calm     93% 0.00 in WeatherDisplay:10.37 W/m2 SCT
02:30 68.5 °F 66.4 °F 29.82 in Calm     93% 0.00 in WeatherDisplay:10.37 W/m2 SCT
02:40 68.3 °F 66.2 °F 29.81 in Calm     93% 0.00 in WeatherDisplay:10.37 W/m2 SCT
02:50 68.3 °F 66.2 °F 29.81 in Calm     93% 0.00 in WeatherDisplay:10.37 W/m2 SCT
03:00 68.3 °F 66.2 °F 29.81 in Calm     93% 0.00 in WeatherDisplay:10.37 W/m2 SCT
03:10 68.3 °F 66.2 °F 29.81 in Calm     93% 0.00 in WeatherDisplay:10.37 W/m2 SCT
03:20 68.3 °F 66.2 °F 29.81 in Calm     93% 0.00 in WeatherDisplay:10.37 W/m2 SCT
03:30 68.3 °F 66.2 °F 29.81 in Calm     93% 0.00 in WeatherDisplay:10.37 W/m2 SCT
03:40 68.3 °F 66.2 °F 29.81 in Calm     93% 0.00 in WeatherDisplay:10.37 W/m2 SCT
03:50 68.3 °F 66.2 °F 29.81 in Calm     93% 0.00 in WeatherDisplay:10.37 W/m2 SCT
04:00 68.3 °F 66.2 °F 29.81 in Calm     93% 0.00 in WeatherDisplay:10.37 W/m2 SCT
04:10 68.3 °F 66.2 °F 29.80 in Calm     93% 0.00 in WeatherDisplay:10.37 W/m2 SCT
04:20 68.3 °F 66.2 °F 29.80 in Calm     93% 0.00 in WeatherDisplay:10.37 W/m2 SCT
04:40 68.3 °F 66.2 °F 29.80 in Calm     93% 0.00 in WeatherDisplay:10.37 W/m2 SCT
04:50 68.3 °F 66.2 °F 29.80 in Calm     93% 0.00 in WeatherDisplay:10.37 W/m2 SCT
05:00 68.3 °F 66.2 °F 29.80 in Calm     93% 0.00 in WeatherDisplay:10.37 W/m2 SCT
05:10 68.3 °F 66.2 °F 29.80 in Calm     93% 0.00 in WeatherDisplay:10.37 W/m2 SCT
05:20 68.3 °F 66.2 °F 29.80 in Calm     93% 0.00 in WeatherDisplay:10.37 W/m2 SCT
05:30 68.3 °F 66.2 °F 29.79 in Calm     93% 0.00 in WeatherDisplay:10.37 W/m2 SCT
05:40 68.3 °F 66.2 °F 29.80 in Calm     93% 0.00 in WeatherDisplay:10.37 W/m2 SCT
05:50 68.3 °F 66.2 °F 29.80 in Calm     93% 0.00 in WeatherDisplay:10.37 W/m2 SCT
06:00 68.3 °F 66.2 °F 29.80 in Calm     93% 0.00 in WeatherDisplay:10.37 W/m2 SCT
06:10 68.3 °F 66.2 °F 29.80 in Calm     93% 0.00 in WeatherDisplay:10.37 W/m2 SCT
06:30 68.3 °F 66.2 °F 29.81 in Calm     93% 0.00 in WeatherDisplay:10.37 W/m2 SCT
06:40 68.3 °F 66.2 °F 29.81 in Calm     93% 0.00 in WeatherDisplay:10.37 W/m2 SCT
06:50 68.3 °F 66.2 °F 29.81 in Calm     93% 0.00 in WeatherDisplay:10.37 W/m2 SCT
07:00 68.3 °F 66.2 °F 29.81 in Calm     93% 0.00 in WeatherDisplay:10.37 W/m2 SCT
07:10 68.3 °F 66.2 °F 29.82 in Calm     93% 0.00 in WeatherDisplay:10.37 W/m2 SCT
07:20 68.3 °F 66.2 °F 29.82 in Calm     93% 0.00 in WeatherDisplay:10.37 W/m2 SCT
07:30 68.3 °F 66.2 °F 29.82 in Calm     93% 0.00 in WeatherDisplay:10.37 W/m2 SCT
07:40 68.3 °F 66.2 °F 29.82 in Calm     93% 0.00 in WeatherDisplay:10.37 W/m2 SCT
07:50 68.3 °F 66.2 °F 29.82 in Calm     93% 0.00 in WeatherDisplay:10.37 W/m2 SCT
08:00 68.3 °F 66.2 °F 29.82 in Calm     93% 0.00 in WeatherDisplay:10.37 W/m2 SCT
08:10 68.3 °F 66.2 °F 29.82 in Calm     93% 0.00 in WeatherDisplay:10.37 W/m2 SCT
08:20 68.3 °F 66.2 °F 29.82 in Calm     93% 0.00 in WeatherDisplay:10.37 W/m2 SCT
08:30 70.4 °F 68.6 °F 29.82 in Calm     94% 0.00 in WeatherDisplay:10.37 W/m2 SCT
08:40 70.5 °F 68.7 °F 29.82 in Calm   1.0 mph 94% 0.00 in WeatherDisplay:10.37 W/m2 SCT
08:50 70.8 °F 69.0 °F 29.81 in Calm   1.0 mph 94% 0.00 in WeatherDisplay:10.37 W/m2 SCT
09:00 71.4 °F 69.6 °F 29.81 in Calm   2.0 mph 94% 0.00 in WeatherDisplay:10.37 W/m2 SCT
09:10 71.6 °F 69.5 °F 29.81 in Calm   2.0 mph 93% 0.00 in WeatherDisplay:10.37 W/m2 SCT
09:20 72.2 °F 69.4 °F 29.81 in Calm   2.0 mph 91% 0.00 in WeatherDisplay:10.37 W/m2 SCT
09:30 72.6 °F 69.2 °F 29.81 in Calm   1.0 mph 89% 0.00 in WeatherDisplay:10.37 W/m2 SCT
09:40 73.0 °F 69.6 °F 29.82 in Calm     89% 0.00 in WeatherDisplay:10.37 W/m2 SCT
09:50 73.3 °F 69.5 °F 29.81 in Calm   1.0 mph 88% 0.00 in WeatherDisplay:10.37 W/m2 SCT
10:00 73.6 °F 68.8 °F 29.81 in Calm   1.0 mph 85% 0.00 in WeatherDisplay:10.37 W/m2 SCT
10:10 73.8 °F 69.0 °F 29.81 in Calm   1.0 mph 85% 0.00 in WeatherDisplay:10.37 W/m2 SCT
10:20 74.1 °F 69.3 °F 29.81 in Calm   1.0 mph 85% 0.00 in WeatherDisplay:10.37 W/m2 SCT
10:30 74.5 °F 68.6 °F 29.81 in Calm   2.0 mph 82% 0.00 in WeatherDisplay:10.37 W/m2 SCT
10:40 74.7 °F 69.2 °F 29.82 in Calm   2.0 mph 83% 0.00 in WeatherDisplay:10.37 W/m2 SCT
10:50 74.9 °F 69.4 °F 29.81 in Calm   1.0 mph 83% 0.00 in WeatherDisplay:10.37 W/m2 SCT
11:00 75.4 °F 69.9 °F 29.81 in Calm   1.0 mph 83% 0.00 in WeatherDisplay:10.37 W/m2 SCT
11:10 76.1 °F 69.8 °F 29.81 in Calm   1.0 mph 81% 0.00 in WeatherDisplay:10.37 W/m2 SCT
11:20 76.6 °F 70.0 °F 29.80 in Calm   2.0 mph 80% 0.00 in WeatherDisplay:10.37 W/m2 SCT
11:30 77.1 °F 70.5 °F 29.80 in Calm   1.0 mph 80% 0.00 in WeatherDisplay:10.37 W/m2 SCT
11:40 76.9 °F 68.8 °F 29.81 in Calm   2.0 mph 76% 0.00 in WeatherDisplay:10.37 W/m2 SCT
11:50 77.0 °F 70.0 °F 29.80 in Calm   1.0 mph 79% 0.00 in WeatherDisplay:10.37 W/m2 SCT
12:00 77.2 °F 70.2 °F 29.80 in Calm   1.0 mph 79% 0.00 in WeatherDisplay:10.37 W/m2 SCT
12:10 77.7 °F 69.5 °F 29.80 in Calm   1.0 mph 76% 0.00 in WeatherDisplay:10.37 W/m2 SCT
12:20 78.4 °F 68.2 °F 29.80 in Calm   2.0 mph 71% 0.00 in WeatherDisplay:10.37 W/m2 SCT
12:30 78.3 °F 69.3 °F 29.79 in Calm   1.0 mph 74% 0.00 in WeatherDisplay:10.37 W/m2 SCT
12:40 77.9 °F 69.8 °F 29.79 in Calm   1.0 mph 76% 0.00 in WeatherDisplay:10.37 W/m2 SCT
12:50 77.9 °F 69.3 °F 29.79 in Calm   1.0 mph 75% 0.00 in WeatherDisplay:10.37 W/m2 SCT
13:00 77.9 °F 70.1 °F 29.78 in Calm   1.0 mph 77% 0.00 in WeatherDisplay:10.37 W/m2 SCT
13:10 77.9 °F 69.7 °F 29.78 in Calm   1.0 mph 76% 0.00 in WeatherDisplay:10.37 W/m2 SCT
13:20 77.7 °F 68.7 °F 29.78 in Calm   1.0 mph 74% 0.00 in WeatherDisplay:10.37 W/m2 SCT
13:30 77.3 °F 68.0 °F 29.78 in Calm   3.0 mph 73% 0.00 in WeatherDisplay:10.37 W/m2 SCT
13:40 77.4 °F 68.9 °F 29.78 in Calm   1.0 mph 75% 0.00 in WeatherDisplay:10.37 W/m2 SCT
13:50 77.5 °F 68.9 °F 29.77 in Calm   3.0 mph 75% 0.00 in WeatherDisplay:10.37 W/m2 SCT
14:00 77.5 °F 69.3 °F 29.78 in Calm   1.0 mph 76% 0.00 in WeatherDisplay:10.37 W/m2 SCT
14:10 77.5 °F 70.1 °F 29.78 in Calm   1.0 mph 78% 0.00 in WeatherDisplay:10.37 W/m2 SCT
14:20 77.3 °F 70.3 °F 29.78 in Calm   2.0 mph 79% 0.00 in WeatherDisplay:10.37 W/m2 SCT
14:30 77.0 °F 70.0 °F 29.77 in Calm   2.0 mph 79% 0.00 in WeatherDisplay:10.37 W/m2 SCT
14:40 76.8 °F 70.2 °F 29.77 in Calm   1.0 mph 80% 0.00 in WeatherDisplay:10.37 W/m2 SCT
14:50 76.8 °F 69.8 °F 29.76 in Calm   1.0 mph 79% 0.00 in WeatherDisplay:10.37 W/m2 SCT
15:00 76.7 °F 70.4 °F 29.76 in Calm   1.0 mph 81% 0.00 in WeatherDisplay:10.37 W/m2 SCT
15:10 76.7 °F 70.4 °F 29.76 in Calm     81% 0.00 in WeatherDisplay:10.37 W/m2 SCT
15:20 76.7 °F 70.1 °F 29.76 in Calm   1.0 mph 80% 0.00 in WeatherDisplay:10.37 W/m2 SCT
15:30 76.6 °F 69.6 °F 29.75 in Calm   1.0 mph 79% 0.00 in WeatherDisplay:10.37 W/m2 SCT
15:40 76.6 °F 70.0 °F 29.75 in Calm   2.0 mph 80% 0.00 in WeatherDisplay:10.37 W/m2 SCT
15:50 76.6 °F 69.2 °F 29.75 in Calm     78% 0.00 in WeatherDisplay:10.37 W/m2 SCT
16:00 76.5 °F 69.1 °F 29.75 in Calm     78% 0.00 in WeatherDisplay:10.37 W/m2 SCT
16:10 76.3 °F 69.7 °F 29.75 in Calm     80% 0.00 in WeatherDisplay:10.37 W/m2 SCT
16:20 76.0 °F 69.0 °F 29.74 in Calm   1.0 mph 79% 0.00 in WeatherDisplay:10.37 W/m2 SCT
16:30 75.7 °F 69.1 °F 29.75 in Calm     80% 0.00 in WeatherDisplay:10.37 W/m2 SCT
16:40 75.6 °F 69.7 °F 29.75 in Calm     82% 0.00 in WeatherDisplay:10.37 W/m2 SCT
16:50 75.3 °F 69.8 °F 29.75 in Calm   1.0 mph 83% 0.00 in WeatherDisplay:10.37 W/m2 SCT
17:00 75.1 °F 70.0 °F 29.75 in Calm     84% 0.00 in WeatherDisplay:10.37 W/m2 SCT
17:10 75.3 °F 70.4 °F 29.74 in Calm     85% 0.00 in WeatherDisplay:10.37 W/m2 SCT
17:20 75.3 °F 70.1 °F 29.74 in Calm   1.0 mph 84% 0.00 in WeatherDisplay:10.37 W/m2 SCT
17:30 75.5 °F 70.0 °F 29.74 in Calm     83% 0.00 in WeatherDisplay:10.37 W/m2 SCT
17:40 75.9 °F 70.4 °F 29.74 in Calm     83% 0.00 in WeatherDisplay:10.37 W/m2 SCT
17:50 76.2 °F 70.3 °F 29.74 in Calm   1.0 mph 82% 0.00 in WeatherDisplay:10.37 W/m2 SCT
18:00 76.5 °F 70.6 °F 29.74 in Calm     82% 0.00 in WeatherDisplay:10.37 W/m2 SCT
18:10 76.6 °F 70.3 °F 29.73 in Calm   1.0 mph 81% 0.00 in WeatherDisplay:10.37 W/m2 SCT
18:20 76.9 °F 70.6 °F 29.73 in Calm     81% 0.00 in WeatherDisplay:10.37 W/m2 SCT
18:30 76.9 °F 70.2 °F 29.73 in Calm   1.0 mph 80% 0.00 in WeatherDisplay:10.37 W/m2 SCT
18:40 76.8 °F 68.7 °F 29.73 in Calm   1.0 mph 76% 0.00 in WeatherDisplay:10.37 W/m2 SCT
18:50 76.6 °F 68.8 °F 29.73 in Calm     77% 0.00 in WeatherDisplay:10.37 W/m2 SCT
19:00 76.3 °F 68.2 °F 29.73 in Calm   1.0 mph 76% 0.00 in WeatherDisplay:10.37 W/m2 SCT
19:10 75.5 °F 67.7 °F 29.73 in Calm   1.0 mph 77% 0.00 in WeatherDisplay:10.37 W/m2 SCT
19:20 75.1 °F 67.8 °F 29.73 in Calm     78% 0.00 in WeatherDisplay:10.37 W/m2 SCT
19:30 74.9 °F 68.3 °F 29.73 in Calm     80% 0.00 in WeatherDisplay:10.37 W/m2 SCT
19:40 74.7 °F 68.5 °F 29.73 in Calm     81% 0.00 in WeatherDisplay:10.37 W/m2 SCT
19:50 74.6 °F 69.1 °F 29.73 in Calm     83% 0.00 in WeatherDisplay:10.37 W/m2 SCT
20:00 74.5 °F 69.0 °F 29.73 in Calm   1.0 mph 83% 0.00 in WeatherDisplay:10.37 W/m2 SCT
20:10 74.5 °F 69.3 °F 29.74 in Calm     84% 0.00 in WeatherDisplay:10.37 W/m2 SCT
20:20 74.4 °F 69.6 °F 29.74 in Calm     85% 0.00 in WeatherDisplay:10.37 W/m2 SCT
20:30 74.2 °F 69.4 °F 29.74 in Calm   1.0 mph 85% 0.00 in WeatherDisplay:10.37 W/m2 SCT
20:40 73.9 °F 69.5 °F 29.74 in Calm   1.0 mph 86% 0.00 in WeatherDisplay:10.37 W/m2 SCT
20:50 73.7 °F 69.2 °F 29.74 in Calm     86% 0.00 in WeatherDisplay:10.37 W/m2 SCT
21:00 73.5 °F 69.4 °F 29.74 in Calm     87% 0.00 in WeatherDisplay:10.37 W/m2 SCT
21:10 73.3 °F 69.5 °F 29.74 in Calm     88% 0.00 in WeatherDisplay:10.37 W/m2 SCT
21:20 73.1 °F 69.3 °F 29.75 in Calm     88% 0.00 in WeatherDisplay:10.37 W/m2 SCT
21:30 72.8 °F 69.0 °F 29.75 in Calm     88% 0.00 in WeatherDisplay:10.37 W/m2 SCT
21:40 72.6 °F 69.2 °F 29.75 in Calm     89% 0.00 in WeatherDisplay:10.37 W/m2 SCT
21:50 72.4 °F 69.0 °F 29.75 in Calm     89% 0.00 in WeatherDisplay:10.37 W/m2 SCT
22:00 72.3 °F 69.2 °F 29.75 in Calm     90% 0.00 in WeatherDisplay:10.37 W/m2 SCT
22:10 72.2 °F 69.1 °F 29.75 in Calm     90% 0.00 in WeatherDisplay:10.37 W/m2 SCT
22:20 72.0 °F 68.9 °F 29.75 in Calm     90% 0.00 in WeatherDisplay:10.37 W/m2 SCT
22:30 71.9 °F 68.8 °F 29.76 in Calm     90% 0.00 in WeatherDisplay:10.37 W/m2 SCT
22:40 71.8 °F 68.7 °F 29.76 in Calm     90% 0.00 in WeatherDisplay:10.37 W/m2 SCT
22:50 71.6 °F 68.8 °F 29.77 in Calm     91% 0.00 in WeatherDisplay:10.37 W/m2 SCT
23:00 71.6 °F 68.8 °F 29.77 in Calm     91% 0.00 in WeatherDisplay:10.37 W/m2 SCT
23:10 71.5 °F 68.7 °F 29.77 in Calm     91% 0.00 in WeatherDisplay:10.37 W/m2 SCT
23:20 70.4 °F 68.9 °F 29.77 in Calm     95% 0.00 in WeatherDisplay:10.37 W/m2 SCT
23:30 70.4 °F 68.9 °F 29.77 in Calm     95% 0.00 in WeatherDisplay:10.37 W/m2 SCT
23:40 70.4 °F 68.9 °F 29.77 in Calm     95% 0.00 in WeatherDisplay:10.37 W/m2 SCT
23:50 70.4 °F 68.9 °F 29.78 in Calm     95% 0.00 in WeatherDisplay:10.37 W/m2 SCT
Piedmont Bend
Compliments of Weather Underground - 4 mb